Terminal Aerodrome Forecast
Issued by NWS Northern Indiana

Home | Current Version | Previous Version | Graphics & Text | Print | Product List | Glossary On
Versions: 1 2 3 4 5 6 7 8 9 10 11 12 13
779
FTUS43 KIWX 172328
TAFFWA
TAF
KFWA 172328Z 1800/1824 24009KT P6SM FEW250
     FM180200 22011KT P6SM FEW250 WS020/24040KT
     FM181200 24012KT P6SM BKN150=

USA.gov is the U.S. government's official web portal to all federal, state and local government web resources and services.